sensor_id;sensor_type;location;lat;lon;timestamp;P1;durP1;ratioP1;P2;durP2;ratioP2
29908;SDS011;36247;51.952;6.146;2022-11-11T00:01:50;17.00;;;7.43;;
29908;SDS011;36247;51.952;6.146;2022-11-11T00:04:34;14.40;;;7.38;;
29908;SDS011;36247;51.952;6.146;2022-11-11T00:07:18;15.45;;;8.32;;
29908;SDS011;36247;51.952;6.146;2022-11-11T00:10:02;17.17;;;7.32;;
29908;SDS011;36247;51.952;6.146;2022-11-11T00:12:46;11.20;;;7.43;;
29908;SDS011;36247;51.952;6.146;2022-11-11T00:15:31;16.65;;;8.75;;
29908;SDS011;36247;51.952;6.146;2022-11-11T00:18:18;13.68;;;8.23;;
29908;SDS011;36247;51.952;6.146;2022-11-11T00:21:21;18.17;;;8.68;;
29908;SDS011;36247;51.952;6.146;2022-11-11T00:24:25;13.70;;;7.88;;
29908;SDS011;36247;51.952;6.146;2022-11-11T00:27:29;15.50;;;6.90;;
29908;SDS011;36247;51.952;6.146;2022-11-11T00:30:13;10.77;;;7.88;;
29908;SDS011;36247;51.952;6.146;2022-11-11T00:32:57;16.15;;;8.85;;
29908;SDS011;36247;51.952;6.146;2022-11-11T00:35:41;12.00;;;7.35;;
29908;SDS011;36247;51.952;6.146;2022-11-11T00:38:37;16.15;;;8.48;;
29908;SDS011;36247;51.952;6.146;2022-11-11T00:41:32;12.07;;;8.27;;
29908;SDS011;36247;51.952;6.146;2022-11-11T00:44:16;14.73;;;7.07;;
29908;SDS011;36247;51.952;6.146;2022-11-11T00:47:01;14.77;;;7.75;;
29908;SDS011;36247;51.952;6.146;2022-11-11T00:50:04;11.77;;;7.40;;
29908;SDS011;36247;51.952;6.146;2022-11-11T00:53:11;14.05;;;7.85;;
29908;SDS011;36247;51.952;6.146;2022-11-11T00:55:55;10.00;;;5.18;;
29908;SDS011;36247;51.952;6.146;2022-11-11T00:58:40;15.23;;;7.53;;
29908;SDS011;36247;51.952;6.146;2022-11-11T01:01:24;13.35;;;7.18;;
29908;SDS011;36247;51.952;6.146;2022-11-11T01:04:08;13.30;;;7.70;;
29908;SDS011;36247;51.952;6.146;2022-11-11T01:06:52;11.93;;;7.30;;
29908;SDS011;36247;51.952;6.146;2022-11-11T01:09:36;13.95;;;7.93;;
29908;SDS011;36247;51.952;6.146;2022-11-11T01:12:20;17.92;;;7.88;;
29908;SDS011;36247;51.952;6.146;2022-11-11T01:15:04;14.63;;;8.48;;
29908;SDS011;36247;51.952;6.146;2022-11-11T01:17:48;17.73;;;7.55;;
29908;SDS011;36247;51.952;6.146;2022-11-11T01:20:32;17.90;;;8.75;;
29908;SDS011;36247;51.952;6.146;2022-11-11T01:23:17;14.68;;;8.13;;
29908;SDS011;36247;51.952;6.146;2022-11-11T01:26:05;13.20;;;7.50;;
29908;SDS011;36247;51.952;6.146;2022-11-11T01:28:53;16.73;;;8.63;;
29908;SDS011;36247;51.952;6.146;2022-11-11T01:31:38;20.10;;;8.23;;
29908;SDS011;36247;51.952;6.146;2022-11-11T01:34:22;15.65;;;9.73;;
29908;SDS011;36247;51.952;6.146;2022-11-11T01:37:06;19.88;;;9.50;;
29908;SDS011;36247;51.952;6.146;2022-11-11T01:39:50;18.50;;;9.38;;
29908;SDS011;36247;51.952;6.146;2022-11-11T01:43:12;18.00;;;11.35;;
29908;SDS011;36247;51.952;6.146;2022-11-11T01:45:57;20.88;;;12.00;;
29908;SDS011;36247;51.952;6.146;2022-11-11T01:48:44;18.27;;;10.30;;
29908;SDS011;36247;51.952;6.146;2022-11-11T01:55:01;24.75;;;13.57;;
29908;SDS011;36247;51.952;6.146;2022-11-11T01:57:56;27.05;;;10.02;;
29908;SDS011;36247;51.952;6.146;2022-11-11T02:00:43;18.47;;;13.07;;
29908;SDS011;36247;51.952;6.146;2022-11-11T02:03:27;22.55;;;12.38;;
29908;SDS011;36247;51.952;6.146;2022-11-11T02:06:14;21.08;;;11.70;;
29908;SDS011;36247;51.952;6.146;2022-11-11T02:08:59;24.10;;;13.75;;
29908;SDS011;36247;51.952;6.146;2022-11-11T02:11:43;22.95;;;13.20;;
29908;SDS011;36247;51.952;6.146;2022-11-11T02:14:48;21.55;;;11.68;;
29908;SDS011;36247;51.952;6.146;2022-11-11T02:17:35;23.40;;;13.90;;
29908;SDS011;36247;51.952;6.146;2022-11-11T02:20:21;23.40;;;12.95;;
29908;SDS011;36247;51.952;6.146;2022-11-11T02:23:10;20.83;;;12.38;;
29908;SDS011;36247;51.952;6.146;2022-11-11T02:26:00;24.08;;;12.82;;
29908;SDS011;36247;51.952;6.146;2022-11-11T02:28:46;28.60;;;14.45;;
29908;SDS011;36247;51.952;6.146;2022-11-11T02:31:32;31.58;;;14.82;;
29908;SDS011;36247;51.952;6.146;2022-11-11T02:34:16;29.55;;;15.20;;
29908;SDS011;36247;51.952;6.146;2022-11-11T02:37:01;22.80;;;12.30;;
29908;SDS011;36247;51.952;6.146;2022-11-11T02:39:48;20.70;;;13.65;;
29908;SDS011;36247;51.952;6.146;2022-11-11T02:42:34;28.08;;;13.98;;
29908;SDS011;36247;51.952;6.146;2022-11-11T02:45:19;28.70;;;13.63;;
29908;SDS011;36247;51.952;6.146;2022-11-11T02:48:03;22.27;;;14.82;;
29908;SDS011;36247;51.952;6.146;2022-11-11T02:50:47;23.83;;;12.13;;
29908;SDS011;36247;51.952;6.146;2022-11-11T02:53:31;27.20;;;14.43;;
29908;SDS011;36247;51.952;6.146;2022-11-11T02:56:15;26.90;;;16.10;;
29908;SDS011;36247;51.952;6.146;2022-11-11T02:59:19;26.27;;;15.13;;
29908;SDS011;36247;51.952;6.146;2022-11-11T03:02:04;26.27;;;14.40;;
29908;SDS011;36247;51.952;6.146;2022-11-11T03:04:50;27.13;;;15.15;;
29908;SDS011;36247;51.952;6.146;2022-11-11T03:07:34;22.38;;;14.95;;
29908;SDS011;36247;51.952;6.146;2022-11-11T03:10:18;26.95;;;15.13;;
29908;SDS011;36247;51.952;6.146;2022-11-11T03:13:02;25.13;;;14.98;;
29908;SDS011;36247;51.952;6.146;2022-11-11T03:15:46;30.05;;;14.70;;
29908;SDS011;36247;51.952;6.146;2022-11-11T03:18:32;21.85;;;14.60;;
29908;SDS011;36247;51.952;6.146;2022-11-11T03:21:16;25.73;;;15.45;;
29908;SDS011;36247;51.952;6.146;2022-11-11T03:24:00;26.80;;;15.48;;
29908;SDS011;36247;51.952;6.146;2022-11-11T03:26:44;23.92;;;15.02;;
29908;SDS011;36247;51.952;6.146;2022-11-11T03:29:28;30.60;;;14.48;;
29908;SDS011;36247;51.952;6.146;2022-11-11T03:32:12;27.63;;;16.92;;
29908;SDS011;36247;51.952;6.146;2022-11-11T03:34:56;27.92;;;16.98;;
29908;SDS011;36247;51.952;6.146;2022-11-11T03:37:40;25.55;;;15.60;;
29908;SDS011;36247;51.952;6.146;2022-11-11T03:40:44;33.67;;;17.80;;
29908;SDS011;36247;51.952;6.146;2022-11-11T03:43:31;26.02;;;14.93;;
29908;SDS011;36247;51.952;6.146;2022-11-11T03:46:16;32.67;;;17.02;;
29908;SDS011;36247;51.952;6.146;2022-11-11T03:49:00;30.17;;;17.83;;
29908;SDS011;36247;51.952;6.146;2022-11-11T03:51:44;28.38;;;17.30;;
29908;SDS011;36247;51.952;6.146;2022-11-11T03:54:28;32.33;;;18.27;;
29908;SDS011;36247;51.952;6.146;2022-11-11T03:57:12;28.55;;;16.73;;
29908;SDS011;36247;51.952;6.146;2022-11-11T04:00:16;34.33;;;18.52;;
29908;SDS011;36247;51.952;6.146;2022-11-11T04:03:04;29.90;;;17.27;;
29908;SDS011;36247;51.952;6.146;2022-11-11T04:06:13;35.35;;;18.15;;
29908;SDS011;36247;51.952;6.146;2022-11-11T04:09:16;28.00;;;15.80;;
29908;SDS011;36247;51.952;6.146;2022-11-11T04:12:19;27.95;;;16.38;;
29908;SDS011;36247;51.952;6.146;2022-11-11T04:15:03;29.77;;;17.67;;
29908;SDS011;36247;51.952;6.146;2022-11-11T04:18:06;28.48;;;19.02;;
29908;SDS011;36247;51.952;6.146;2022-11-11T04:20:50;29.10;;;17.52;;
29908;SDS011;36247;51.952;6.146;2022-11-11T04:23:53;31.67;;;16.48;;
29908;SDS011;36247;51.952;6.146;2022-11-11T04:26:37;31.85;;;16.13;;
29908;SDS011;36247;51.952;6.146;2022-11-11T04:29:22;31.70;;;16.98;;
29908;SDS011;36247;51.952;6.146;2022-11-11T04:32:12;28.10;;;16.85;;
29908;SDS011;36247;51.952;6.146;2022-11-11T04:35:17;29.92;;;16.48;;
29908;SDS011;36247;51.952;6.146;2022-11-11T04:38:01;33.88;;;18.10;;
29908;SDS011;36247;51.952;6.146;2022-11-11T04:41:04;28.13;;;14.75;;
29908;SDS011;36247;51.952;6.146;2022-11-11T04:43:49;31.73;;;15.93;;
29908;SDS011;36247;51.952;6.146;2022-11-11T04:46:52;27.20;;;15.55;;
29908;SDS011;36247;51.952;6.146;2022-11-11T04:49:36;29.25;;;16.40;;
29908;SDS011;36247;51.952;6.146;2022-11-11T04:52:20;26.23;;;15.90;;
29908;SDS011;36247;51.952;6.146;2022-11-11T04:55:14;30.35;;;16.52;;
29908;SDS011;36247;51.952;6.146;2022-11-11T04:58:19;24.87;;;14.40;;
29908;SDS011;36247;51.952;6.146;2022-11-11T05:01:04;33.03;;;16.98;;
29908;SDS011;36247;51.952;6.146;2022-11-11T05:03:48;32.47;;;16.98;;
29908;SDS011;36247;51.952;6.146;2022-11-11T05:06:32;28.15;;;16.10;;
29908;SDS011;36247;51.952;6.146;2022-11-11T05:09:35;33.85;;;17.45;;
29908;SDS011;36247;51.952;6.146;2022-11-11T05:12:19;31.00;;;17.00;;
29908;SDS011;36247;51.952;6.146;2022-11-11T05:15:03;26.60;;;16.70;;
29908;SDS011;36247;51.952;6.146;2022-11-11T05:18:07;40.38;;;18.33;;
29908;SDS011;36247;51.952;6.146;2022-11-11T05:21:12;38.05;;;19.90;;
29908;SDS011;36247;51.952;6.146;2022-11-11T05:24:05;39.65;;;19.17;;
29908;SDS011;36247;51.952;6.146;2022-11-11T05:27:08;35.05;;;16.83;;
29908;SDS011;36247;51.952;6.146;2022-11-11T05:29:52;50.03;;;25.33;;
29908;SDS011;36247;51.952;6.146;2022-11-11T05:32:37;46.85;;;24.85;;
29908;SDS011;36247;51.952;6.146;2022-11-11T05:35:22;51.40;;;27.27;;
29908;SDS011;36247;51.952;6.146;2022-11-11T05:38:06;52.85;;;27.25;;
29908;SDS011;36247;51.952;6.146;2022-11-11T05:41:06;51.47;;;28.88;;
29908;SDS011;36247;51.952;6.146;2022-11-11T05:43:51;56.17;;;28.83;;
29908;SDS011;36247;51.952;6.146;2022-11-11T05:46:35;57.13;;;30.85;;
29908;SDS011;36247;51.952;6.146;2022-11-11T05:49:19;58.88;;;28.85;;
29908;SDS011;36247;51.952;6.146;2022-11-11T05:52:03;59.45;;;30.17;;
29908;SDS011;36247;51.952;6.146;2022-11-11T05:54:48;61.13;;;32.60;;
29908;SDS011;36247;51.952;6.146;2022-11-11T05:57:32;59.53;;;30.08;;
29908;SDS011;36247;51.952;6.146;2022-11-11T06:00:16;61.30;;;29.00;;
29908;SDS011;36247;51.952;6.146;2022-11-11T06:03:02;58.22;;;28.67;;
29908;SDS011;36247;51.952;6.146;2022-11-11T06:05:47;56.33;;;29.33;;
29908;SDS011;36247;51.952;6.146;2022-11-11T06:08:31;54.30;;;28.63;;
29908;SDS011;36247;51.952;6.146;2022-11-11T06:11:15;52.45;;;25.75;;
29908;SDS011;36247;51.952;6.146;2022-11-11T06:13:59;50.88;;;23.85;;
29908;SDS011;36247;51.952;6.146;2022-11-11T06:16:43;44.25;;;22.35;;
29908;SDS011;36247;51.952;6.146;2022-11-11T06:19:27;41.97;;;19.75;;
29908;SDS011;36247;51.952;6.146;2022-11-11T06:22:11;38.38;;;22.15;;
29908;SDS011;36247;51.952;6.146;2022-11-11T06:24:55;39.83;;;19.88;;
29908;SDS011;36247;51.952;6.146;2022-11-11T06:27:59;29.75;;;16.33;;
29908;SDS011;36247;51.952;6.146;2022-11-11T06:30:44;29.38;;;16.58;;
29908;SDS011;36247;51.952;6.146;2022-11-11T06:33:28;35.97;;;18.70;;
29908;SDS011;36247;51.952;6.146;2022-11-11T06:36:14;33.33;;;18.45;;
29908;SDS011;36247;51.952;6.146;2022-11-11T06:39:00;24.80;;;15.15;;
29908;SDS011;36247;51.952;6.146;2022-11-11T06:41:43;29.55;;;15.55;;
29908;SDS011;36247;51.952;6.146;2022-11-11T06:44:27;31.35;;;17.33;;
29908;SDS011;36247;51.952;6.146;2022-11-11T06:47:11;27.83;;;16.88;;
29908;SDS011;36247;51.952;6.146;2022-11-11T06:49:55;27.55;;;16.40;;
29908;SDS011;36247;51.952;6.146;2022-11-11T06:52:40;28.45;;;16.60;;
29908;SDS011;36247;51.952;6.146;2022-11-11T06:55:24;34.60;;;16.63;;
29908;SDS011;36247;51.952;6.146;2022-11-11T06:58:08;27.25;;;15.93;;
29908;SDS011;36247;51.952;6.146;2022-11-11T07:00:54;27.13;;;15.25;;
29908;SDS011;36247;51.952;6.146;2022-11-11T07:03:38;29.77;;;15.02;;
29908;SDS011;36247;51.952;6.146;2022-11-11T07:06:22;23.83;;;14.20;;
29908;SDS011;36247;51.952;6.146;2022-11-11T07:09:06;24.48;;;14.07;;
29908;SDS011;36247;51.952;6.146;2022-11-11T07:11:50;28.88;;;14.15;;
29908;SDS011;36247;51.952;6.146;2022-11-11T07:14:34;22.85;;;13.88;;
29908;SDS011;36247;51.952;6.146;2022-11-11T07:17:18;26.50;;;13.35;;
29908;SDS011;36247;51.952;6.146;2022-11-11T07:20:03;22.70;;;12.15;;
29908;SDS011;36247;51.952;6.146;2022-11-11T07:22:47;21.77;;;11.13;;
29908;SDS011;36247;51.952;6.146;2022-11-11T07:25:32;22.83;;;12.63;;
29908;SDS011;36247;51.952;6.146;2022-11-11T07:28:17;21.77;;;12.50;;
29908;SDS011;36247;51.952;6.146;2022-11-11T07:31:00;18.38;;;10.90;;
29908;SDS011;36247;51.952;6.146;2022-11-11T07:33:45;16.90;;;10.88;;
29908;SDS011;36247;51.952;6.146;2022-11-11T07:36:29;21.27;;;11.40;;
29908;SDS011;36247;51.952;6.146;2022-11-11T07:39:13;15.45;;;9.82;;
29908;SDS011;36247;51.952;6.146;2022-11-11T07:41:57;21.58;;;11.43;;
29908;SDS011;36247;51.952;6.146;2022-11-11T07:44:41;18.80;;;10.27;;
29908;SDS011;36247;51.952;6.146;2022-11-11T07:47:25;16.98;;;10.23;;
29908;SDS011;36247;51.952;6.146;2022-11-11T07:50:09;17.27;;;10.40;;
29908;SDS011;36247;51.952;6.146;2022-11-11T07:52:53;19.67;;;9.05;;
29908;SDS011;36247;51.952;6.146;2022-11-11T07:55:38;18.88;;;10.65;;
29908;SDS011;36247;51.952;6.146;2022-11-11T07:58:22;22.90;;;9.90;;
29908;SDS011;36247;51.952;6.146;2022-11-11T08:01:06;21.15;;;11.32;;
29908;SDS011;36247;51.952;6.146;2022-11-11T08:03:50;17.52;;;10.38;;
29908;SDS011;36247;51.952;6.146;2022-11-11T08:06:34;20.85;;;11.55;;
29908;SDS011;36247;51.952;6.146;2022-11-11T08:09:18;17.30;;;10.60;;
29908;SDS011;36247;51.952;6.146;2022-11-11T08:12:02;22.17;;;11.70;;
29908;SDS011;36247;51.952;6.146;2022-11-11T08:15:05;16.88;;;10.52;;
29908;SDS011;36247;51.952;6.146;2022-11-11T08:17:50;21.02;;;11.40;;
29908;SDS011;36247;51.952;6.146;2022-11-11T08:20:34;17.27;;;10.00;;
29908;SDS011;36247;51.952;6.146;2022-11-11T08:23:18;14.05;;;8.40;;
29908;SDS011;36247;51.952;6.146;2022-11-11T08:26:08;18.48;;;9.30;;
29908;SDS011;36247;51.952;6.146;2022-11-11T08:28:52;14.38;;;8.30;;
29908;SDS011;36247;51.952;6.146;2022-11-11T08:31:37;22.33;;;9.30;;
29908;SDS011;36247;51.952;6.146;2022-11-11T08:34:21;16.83;;;8.25;;
29908;SDS011;36247;51.952;6.146;2022-11-11T08:37:06;12.95;;;7.80;;
29908;SDS011;36247;51.952;6.146;2022-11-11T08:39:49;12.55;;;8.13;;
29908;SDS011;36247;51.952;6.146;2022-11-11T08:42:36;14.68;;;8.50;;
29908;SDS011;36247;51.952;6.146;2022-11-11T08:45:21;17.67;;;8.75;;
29908;SDS011;36247;51.952;6.146;2022-11-11T08:48:06;12.95;;;8.50;;
29908;SDS011;36247;51.952;6.146;2022-11-11T08:50:54;16.15;;;8.52;;
29908;SDS011;36247;51.952;6.146;2022-11-11T08:53:38;12.93;;;7.55;;
29908;SDS011;36247;51.952;6.146;2022-11-11T08:56:23;15.27;;;7.88;;
29908;SDS011;36247;51.952;6.146;2022-11-11T08:59:07;11.60;;;7.40;;
29908;SDS011;36247;51.952;6.146;2022-11-11T09:01:52;12.80;;;7.25;;
29908;SDS011;36247;51.952;6.146;2022-11-11T09:04:37;11.20;;;7.25;;
29908;SDS011;36247;51.952;6.146;2022-11-11T09:07:21;13.43;;;7.82;;
29908;SDS011;36247;51.952;6.146;2022-11-11T09:10:06;13.18;;;8.02;;
29908;SDS011;36247;51.952;6.146;2022-11-11T09:12:54;10.95;;;8.20;;
29908;SDS011;36247;51.952;6.146;2022-11-11T09:15:42;13.80;;;7.85;;
29908;SDS011;36247;51.952;6.146;2022-11-11T09:18:26;15.80;;;8.38;;
29908;SDS011;36247;51.952;6.146;2022-11-11T09:21:10;13.25;;;7.40;;
29908;SDS011;36247;51.952;6.146;2022-11-11T09:23:54;15.55;;;7.18;;
29908;SDS011;36247;51.952;6.146;2022-11-11T09:26:38;15.63;;;8.02;;
29908;SDS011;36247;51.952;6.146;2022-11-11T09:29:22;15.35;;;7.30;;
29908;SDS011;36247;51.952;6.146;2022-11-11T09:32:06;15.25;;;7.90;;
29908;SDS011;36247;51.952;6.146;2022-11-11T09:34:50;11.23;;;6.30;;
29908;SDS011;36247;51.952;6.146;2022-11-11T09:37:34;9.45;;;6.28;;
29908;SDS011;36247;51.952;6.146;2022-11-11T09:40:18;14.65;;;6.93;;
29908;SDS011;36247;51.952;6.146;2022-11-11T09:52:22;11.02;;;6.32;;
29908;SDS011;36247;51.952;6.146;2022-11-11T09:55:16;11.98;;;6.18;;
29908;SDS011;36247;51.952;6.146;2022-11-11T09:58:14;12.05;;;6.63;;
29908;SDS011;36247;51.952;6.146;2022-11-11T10:04:29;11.18;;;6.22;;
29908;SDS011;36247;51.952;6.146;2022-11-11T10:07:24;12.77;;;6.40;;
29908;SDS011;36247;51.952;6.146;2022-11-11T10:22:58;11.98;;;5.10;;
29908;SDS011;36247;51.952;6.146;2022-11-11T10:25:53;9.73;;;5.68;;
29908;SDS011;36247;51.952;6.146;2022-11-11T10:28:39;8.05;;;4.65;;
29908;SDS011;36247;51.952;6.146;2022-11-11T10:31:26;10.85;;;5.65;;
29908;SDS011;36247;51.952;6.146;2022-11-11T10:34:11;7.18;;;5.10;;
29908;SDS011;36247;51.952;6.146;2022-11-11T10:36:58;9.88;;;5.20;;
29908;SDS011;36247;51.952;6.146;2022-11-11T10:42:34;10.55;;;4.65;;
29908;SDS011;36247;51.952;6.146;2022-11-11T10:45:28;8.60;;;4.82;;
29908;SDS011;36247;51.952;6.146;2022-11-11T10:48:24;7.20;;;4.45;;
29908;SDS011;36247;51.952;6.146;2022-11-11T10:51:29;6.60;;;4.68;;
29908;SDS011;36247;51.952;6.146;2022-11-11T10:54:19;8.25;;;4.50;;
29908;SDS011;36247;51.952;6.146;2022-11-11T10:57:38;7.10;;;4.57;;
29908;SDS011;36247;51.952;6.146;2022-11-11T11:00:34;8.95;;;4.55;;
29908;SDS011;36247;51.952;6.146;2022-11-11T11:03:25;6.78;;;4.47;;
29908;SDS011;36247;51.952;6.146;2022-11-11T11:06:26;8.73;;;4.47;;
29908;SDS011;36247;51.952;6.146;2022-11-11T11:09:14;7.35;;;5.00;;
29908;SDS011;36247;51.952;6.146;2022-11-11T11:12:15;9.73;;;4.00;;
29908;SDS011;36247;51.952;6.146;2022-11-11T11:15:07;8.05;;;4.30;;
29908;SDS011;36247;51.952;6.146;2022-11-11T11:18:01;7.78;;;4.57;;
29908;SDS011;36247;51.952;6.146;2022-11-11T11:20:56;8.35;;;4.63;;
29908;SDS011;36247;51.952;6.146;2022-11-11T11:23:43;6.60;;;3.80;;
29908;SDS011;36247;51.952;6.146;2022-11-11T11:26:41;6.07;;;4.05;;
29908;SDS011;36247;51.952;6.146;2022-11-11T11:29:29;9.48;;;4.85;;
29908;SDS011;36247;51.952;6.146;2022-11-11T11:32:27;8.95;;;5.10;;
29908;SDS011;36247;51.952;6.146;2022-11-11T11:35:28;6.90;;;4.88;;
29908;SDS011;36247;51.952;6.146;2022-11-11T11:38:20;5.68;;;4.63;;
29908;SDS011;36247;51.952;6.146;2022-11-11T11:41:04;7.70;;;4.30;;
29908;SDS011;36247;51.952;6.146;2022-11-11T11:43:48;9.25;;;4.50;;
29908;SDS011;36247;51.952;6.146;2022-11-11T11:49:38;6.47;;;4.55;;
29908;SDS011;36247;51.952;6.146;2022-11-11T11:55:53;7.30;;;4.40;;
29908;SDS011;36247;51.952;6.146;2022-11-11T12:02:14;5.90;;;4.35;;
29908;SDS011;36247;51.952;6.146;2022-11-11T12:10:57;8.35;;;4.82;;
29908;SDS011;36247;51.952;6.146;2022-11-11T12:13:57;7.07;;;5.30;;
29908;SDS011;36247;51.952;6.146;2022-11-11T12:20:16;8.00;;;4.25;;
29908;SDS011;36247;51.952;6.146;2022-11-11T12:23:12;13.40;;;4.68;;
29908;SDS011;36247;51.952;6.146;2022-11-11T12:26:12;6.47;;;4.15;;
29908;SDS011;36247;51.952;6.146;2022-11-11T12:38:31;9.60;;;5.20;;
29908;SDS011;36247;51.952;6.146;2022-11-11T12:44:29;6.40;;;5.22;;
29908;SDS011;36247;51.952;6.146;2022-11-11T12:54:03;7.13;;;5.10;;
29908;SDS011;36247;51.952;6.146;2022-11-11T12:57:03;10.40;;;5.57;;
29908;SDS011;36247;51.952;6.146;2022-11-11T13:06:17;9.07;;;4.97;;
29908;SDS011;36247;51.952;6.146;2022-11-11T13:09:25;11.80;;;5.13;;
29908;SDS011;36247;51.952;6.146;2022-11-11T13:15:21;12.23;;;4.97;;
29908;SDS011;36247;51.952;6.146;2022-11-11T13:18:20;8.48;;;4.93;;
29908;SDS011;36247;51.952;6.146;2022-11-11T13:21:14;9.98;;;5.30;;
29908;SDS011;36247;51.952;6.146;2022-11-11T13:24:02;9.45;;;5.10;;
29908;SDS011;36247;51.952;6.146;2022-11-11T13:26:47;9.77;;;5.30;;
29908;SDS011;36247;51.952;6.146;2022-11-11T13:33:08;11.50;;;4.93;;
29908;SDS011;36247;51.952;6.146;2022-11-11T13:35:54;13.55;;;5.35;;
29908;SDS011;36247;51.952;6.146;2022-11-11T13:41:34;9.13;;;6.10;;
29908;SDS011;36247;51.952;6.146;2022-11-11T13:47:22;7.65;;;4.88;;
29908;SDS011;36247;51.952;6.146;2022-11-11T13:50:20;10.50;;;4.93;;
29908;SDS011;36247;51.952;6.146;2022-11-11T13:53:14;13.80;;;4.88;;
29908;SDS011;36247;51.952;6.146;2022-11-11T13:56:08;15.13;;;7.70;;
29908;SDS011;36247;51.952;6.146;2022-11-11T13:58:55;11.45;;;4.85;;
29908;SDS011;36247;51.952;6.146;2022-11-11T14:01:41;10.38;;;4.70;;
29908;SDS011;36247;51.952;6.146;2022-11-11T14:04:25;7.95;;;5.20;;
29908;SDS011;36247;51.952;6.146;2022-11-11T14:07:32;8.68;;;5.95;;
29908;SDS011;36247;51.952;6.146;2022-11-11T14:28:18;8.82;;;5.20;;
29908;SDS011;36247;51.952;6.146;2022-11-11T14:34:00;11.07;;;5.40;;
29908;SDS011;36247;51.952;6.146;2022-11-11T14:37:02;8.98;;;5.80;;
29908;SDS011;36247;51.952;6.146;2022-11-11T14:42:42;13.48;;;5.55;;
29908;SDS011;36247;51.952;6.146;2022-11-11T14:58:04;10.30;;;4.90;;
29908;SDS011;36247;51.952;6.146;2022-11-11T15:04:00;7.75;;;4.78;;
29908;SDS011;36247;51.952;6.146;2022-11-11T15:09:12;6.65;;;4.65;;
29908;SDS011;36247;51.952;6.146;2022-11-11T15:12:07;8.48;;;4.72;;
29908;SDS011;36247;51.952;6.146;2022-11-11T15:15:05;8.00;;;4.75;;
29908;SDS011;36247;51.952;6.146;2022-11-11T15:23:46;9.80;;;5.55;;
29908;SDS011;36247;51.952;6.146;2022-11-11T15:26:42;9.43;;;5.22;;
29908;SDS011;36247;51.952;6.146;2022-11-11T15:29:53;12.68;;;8.10;;
29908;SDS011;36247;51.952;6.146;2022-11-11T15:39:20;15.13;;;9.30;;
29908;SDS011;36247;51.952;6.146;2022-11-11T15:42:21;12.32;;;8.15;;
29908;SDS011;36247;51.952;6.146;2022-11-11T15:48:02;14.77;;;7.50;;
29908;SDS011;36247;51.952;6.146;2022-11-11T15:50:47;11.15;;;6.40;;
29908;SDS011;36247;51.952;6.146;2022-11-11T15:53:31;10.60;;;6.13;;
29908;SDS011;36247;51.952;6.146;2022-11-11T15:56:28;12.23;;;6.65;;
29908;SDS011;36247;51.952;6.146;2022-11-11T15:59:20;13.45;;;7.13;;
29908;SDS011;36247;51.952;6.146;2022-11-11T16:02:07;10.40;;;6.95;;
29908;SDS011;36247;51.952;6.146;2022-11-11T16:05:02;15.75;;;7.60;;
29908;SDS011;36247;51.952;6.146;2022-11-11T16:07:55;14.93;;;8.55;;
29908;SDS011;36247;51.952;6.146;2022-11-11T16:10:42;15.40;;;8.10;;
29908;SDS011;36247;51.952;6.146;2022-11-11T16:16:27;13.05;;;7.47;;
29908;SDS011;36247;51.952;6.146;2022-11-11T16:19:23;13.65;;;7.20;;
29908;SDS011;36247;51.952;6.146;2022-11-11T16:22:18;11.65;;;7.85;;
29908;SDS011;36247;51.952;6.146;2022-11-11T16:25:19;11.75;;;7.35;;
29908;SDS011;36247;51.952;6.146;2022-11-11T16:28:04;17.95;;;8.45;;
29908;SDS011;36247;51.952;6.146;2022-11-11T16:30:48;11.50;;;7.95;;
29908;SDS011;36247;51.952;6.146;2022-11-11T16:33:33;11.32;;;6.13;;
29908;SDS011;36247;51.952;6.146;2022-11-11T16:36:17;13.98;;;7.20;;
29908;SDS011;36247;51.952;6.146;2022-11-11T16:39:17;13.38;;;7.90;;
29908;SDS011;36247;51.952;6.146;2022-11-11T16:42:03;12.13;;;7.53;;
29908;SDS011;36247;51.952;6.146;2022-11-11T16:44:59;13.73;;;7.60;;
29908;SDS011;36247;51.952;6.146;2022-11-11T16:47:48;13.00;;;8.20;;
29908;SDS011;36247;51.952;6.146;2022-11-11T16:50:33;23.98;;;8.88;;
29908;SDS011;36247;51.952;6.146;2022-11-11T16:54:25;15.27;;;8.38;;
29908;SDS011;36247;51.952;6.146;2022-11-11T16:56:52;17.48;;;7.25;;
29908;SDS011;36247;51.952;6.146;2022-11-11T16:59:43;12.52;;;7.90;;
29908;SDS011;36247;51.952;6.146;2022-11-11T17:02:30;17.25;;;8.25;;
29908;SDS011;36247;51.952;6.146;2022-11-11T17:05:14;13.63;;;8.00;;
29908;SDS011;36247;51.952;6.146;2022-11-11T17:07:58;14.75;;;8.55;;
29908;SDS011;36247;51.952;6.146;2022-11-11T17:10:42;12.32;;;7.32;;
29908;SDS011;36247;51.952;6.146;2022-11-11T17:13:27;10.98;;;7.03;;
29908;SDS011;36247;51.952;6.146;2022-11-11T17:16:11;10.60;;;6.65;;
29908;SDS011;36247;51.952;6.146;2022-11-11T17:18:58;8.48;;;6.20;;
29908;SDS011;36247;51.952;6.146;2022-11-11T17:21:43;10.80;;;7.10;;
29908;SDS011;36247;51.952;6.146;2022-11-11T17:24:28;10.80;;;6.40;;
29908;SDS011;36247;51.952;6.146;2022-11-11T17:27:13;7.88;;;6.93;;
29908;SDS011;36247;51.952;6.146;2022-11-11T17:29:57;12.38;;;7.13;;
29908;SDS011;36247;51.952;6.146;2022-11-11T17:32:41;11.52;;;7.60;;
29908;SDS011;36247;51.952;6.146;2022-11-11T17:35:25;12.15;;;6.45;;
29908;SDS011;36247;51.952;6.146;2022-11-11T17:38:09;10.30;;;7.22;;
29908;SDS011;36247;51.952;6.146;2022-11-11T17:40:53;10.85;;;7.80;;
29908;SDS011;36247;51.952;6.146;2022-11-11T17:43:38;20.33;;;8.38;;
29908;SDS011;36247;51.952;6.146;2022-11-11T17:46:22;14.25;;;8.18;;
29908;SDS011;36247;51.952;6.146;2022-11-11T17:49:06;13.10;;;6.22;;
29908;SDS011;36247;51.952;6.146;2022-11-11T17:51:50;9.57;;;5.97;;
29908;SDS011;36247;51.952;6.146;2022-11-11T17:54:34;12.50;;;6.18;;
29908;SDS011;36247;51.952;6.146;2022-11-11T17:57:18;8.02;;;5.07;;
29908;SDS011;36247;51.952;6.146;2022-11-11T18:00:02;8.82;;;5.82;;
29908;SDS011;36247;51.952;6.146;2022-11-11T18:02:46;8.93;;;5.47;;
29908;SDS011;36247;51.952;6.146;2022-11-11T18:05:34;11.70;;;5.75;;
29908;SDS011;36247;51.952;6.146;2022-11-11T18:08:18;8.82;;;4.97;;
29908;SDS011;36247;51.952;6.146;2022-11-11T18:11:04;9.65;;;5.63;;
29908;SDS011;36247;51.952;6.146;2022-11-11T18:13:53;10.90;;;5.75;;
29908;SDS011;36247;51.952;6.146;2022-11-11T18:16:37;11.68;;;6.40;;
29908;SDS011;36247;51.952;6.146;2022-11-11T18:19:21;11.85;;;6.13;;
29908;SDS011;36247;51.952;6.146;2022-11-11T18:22:05;13.75;;;7.35;;
29908;SDS011;36247;51.952;6.146;2022-11-11T18:24:50;9.98;;;5.82;;
29908;SDS011;36247;51.952;6.146;2022-11-11T18:27:35;6.18;;;4.90;;
29908;SDS011;36247;51.952;6.146;2022-11-11T18:30:19;7.60;;;4.68;;
29908;SDS011;36247;51.952;6.146;2022-11-11T18:33:04;5.45;;;2.65;;
29908;SDS011;36247;51.952;6.146;2022-11-11T18:35:49;8.95;;;4.93;;
29908;SDS011;36247;51.952;6.146;2022-11-11T18:38:34;9.95;;;6.25;;
29908;SDS011;36247;51.952;6.146;2022-11-11T18:41:19;14.02;;;8.10;;
29908;SDS011;36247;51.952;6.146;2022-11-11T18:44:04;13.13;;;7.95;;
29908;SDS011;36247;51.952;6.146;2022-11-11T18:46:48;13.82;;;9.20;;
29908;SDS011;36247;51.952;6.146;2022-11-11T18:49:32;12.80;;;8.45;;
29908;SDS011;36247;51.952;6.146;2022-11-11T18:52:16;15.80;;;9.75;;
29908;SDS011;36247;51.952;6.146;2022-11-11T18:55:00;19.65;;;13.60;;
29908;SDS011;36247;51.952;6.146;2022-11-11T18:57:44;30.25;;;18.48;;
29908;SDS011;36247;51.952;6.146;2022-11-11T19:00:28;17.55;;;11.43;;
29908;SDS011;36247;51.952;6.146;2022-11-11T19:03:12;12.80;;;8.07;;
29908;SDS011;36247;51.952;6.146;2022-11-11T19:06:00;6.15;;;4.63;;